| time (UTC) | temp F | wind direction | speed MPH | gust MPH | rain 1hr in | rain 24hr in | rain mn in | humidity % | barometer mb |
| 20260506033005 | 68 | 334 | 2.0 | 12.0 | 0.00 | 0.00 | 0.00 | 71 | 1008.9 |
| 20260506032211 | 68 | 351 | 9.0 | 13.0 | 0.00 | 0.00 | 0.00 | 70 | 1008.7 |
| 20260506031004 | 68 | 360 | 10.0 | 11.0 | 0.00 | 0.00 | 0.00 | 70 | 1008.2 |
| 20260506030004 | 69 | 5 | 5.0 | 10.0 | 0.00 | 0.00 | 0.00 | 70 | 1007.9 |
| 20260506025004 | 69 | 342 | 6.0 | 10.0 | 0.00 | 0.00 | 0.00 | 69 | 1007.6 |
| 20260506024004 | 70 | 360 | 4.0 | 11.0 | 0.00 | 0.00 | 0.00 | 69 | 1007.5 |
| 20260506023004 | 70 | 346 | 4.0 | 14.0 | 0.00 | 0.00 | 0.00 | 68 | 1007.3 |
| 20260506022004 | 71 | 342 | 8.0 | 11.0 | 0.00 | 0.00 | 0.00 | 68 | 1007.0 |
| 20260506021004 | 72 | 39 | 10.0 | 11.0 | 0.00 | 0.00 | 0.00 | 67 | 1006.8 |
| 20260506020004 | 72 | 355 | 5.0 | 9.0 | 0.00 | 0.00 | 0.00 | 68 | 1006.7 |
| 20260506015004 | 72 | 338 | 5.0 | 9.0 | 0.00 | 0.00 | 0.00 | 67 | 1006.5 |
| 20260506014004 | 72 | 14 | 3.0 | 9.0 | 0.00 | 0.00 | 0.00 | 66 | 1006.3 |
| 20260506013004 | 73 | 323 | 2.0 | 8.0 | 0.00 | 0.00 | 0.00 | 65 | 1005.9 |
| 20260506012004 | 74 | 9 | 5.0 | 10.0 | 0.00 | 0.00 | 0.00 | 64 | 1005.6 |
| 20260506011004 | 74 | 335 | 4.0 | 10.0 | 0.00 | 0.00 | 0.00 | 64 | 1005.7 |
| 20260506010005 | 75 | 9 | 3.0 | 9.0 | 0.00 | 0.00 | 0.00 | 63 | 1005.3 |
| 20260506005004 | 76 | 44 | 3.0 | 9.0 | 0.00 | 0.00 | 0.00 | 62 | 1005.4 |
| 20260506004005 | 76 | 5 | 9.0 | 12.0 | 0.00 | 0.00 | 0.00 | 62 | 1005.4 |
| 20260506003005 | 77 | 355 | 6.0 | 10.0 | 0.00 | 0.00 | 0.00 | 61 | 1004.9 |
| 20260506002003 | 78 | 335 | 3.0 | 13.0 | 0.00 | 0.00 | 0.00 | 59 | 1004.8 |
| 20260506001004 | 80 | 33 | 9.0 | 14.0 | 0.00 | 0.00 | 0.00 | 58 | 1004.7 |
| 20260506000004 | 81 | 30 | 4.0 | 13.0 | 0.00 | 0.00 | 0.00 | 58 | 1004.7 |
| 20260505235004 | 83 | 355 | 10.0 | 16.0 | 0.00 | 0.00 | 0.00 | 57 | 1004.6 |
| 20260505234004 | 85 | 12 | 10.0 | 16.0 | 0.00 | 0.00 | 0.00 | 55 | 1004.2 |
| 20260505233004 | 85 | 44 | 5.0 | 13.0 | 0.00 | 0.00 | 0.00 | 50 | 1003.8 |
| 20260505232004 | 88 | 67 | 8.0 | 20.0 | 0.00 | 0.00 | 0.00 | 46 | 1003.7 |
| 20260505231004 | 93 | 161 | 2.0 | 10.0 | 0.00 | 0.00 | 0.00 | 40 | 1003.4 |
| 20260505230004 | 93 | 234 | 3.0 | 5.0 | 0.00 | 0.00 | 0.00 | 41 | 1003.3 |
| 20260505225004 | 93 | 259 | 4.0 | 5.0 | 0.00 | 0.00 | 0.00 | 38 | 1003.3 |
| 20260505224004 | 94 | 211 | 4.0 | 6.0 | 0.00 | 0.00 | 0.00 | 37 | 1003.3 |
| 20260505223004 | 94 | 189 | 2.0 | 6.0 | 0.00 | 0.00 | 0.00 | 38 | 1003.2 |
| 20260505222004 | 94 | 212 | 3.0 | 7.0 | 0.00 | 0.00 | 0.00 | 38 | 1003.2 |
| 20260505221004 | 94 | 190 | 4.0 | 7.0 | 0.00 | 0.00 | 0.00 | 40 | 1003.1 |
| 20260505220212 | 94 | 275 | 4.0 | 5.0 | 0.00 | 0.00 | 0.00 | 38 | 1003.1 |
| 20260505215004 | 94 | 228 | 3.0 | 5.0 | 0.00 | 0.00 | 0.00 | 39 | 1003.1 |
| 20260505214004 | 94 | 332 | 5.0 | 9.0 | 0.00 | 0.00 | 0.00 | 40 | 1003.3 |
| 20260505213004 | 94 | 314 | 2.0 | 6.0 | 0.00 | 0.00 | 0.00 | 39 | 1003.2 |
| 20260505212005 | 93 | 246 | 2.0 | 7.0 | 0.00 | 0.00 | 0.00 | 42 | 1003.5 |
| 20260505211005 | 93 | 218 | 1.0 | 8.0 | 0.00 | 0.00 | 0.00 | 41 | 1003.5 |
| 20260505210004 | 93 | 224 | 4.0 | 8.0 | 0.00 | 0.00 | 0.00 | 43 | 1003.6 |
| 20260505205004 | 93 | 313 | 1.0 | 9.0 | 0.00 | 0.00 | 0.00 | 43 | 1003.9 |
| 20260505204211 | 93 | 236 | 6.0 | 10.0 | 0.00 | 0.00 | 0.00 | 42 | 1004.1 |
| 20260505203212 | 93 | 319 | 2.0 | 7.0 | 0.00 | 0.00 | 0.00 | 44 | 1004.2 |
| 20260505202005 | 92 | 216 | 2.0 | 8.0 | 0.00 | 0.00 | 0.00 | 44 | 1004.0 |
| 20260505201004 | 92 | 213 | 4.0 | 9.0 | 0.00 | 0.00 | 0.00 | 44 | 1004.4 |
| 20260505200004 | 92 | 271 | 2.0 | 7.0 | 0.00 | 0.00 | 0.00 | 48 | 1004.4 |
| 20260505195004 | 91 | 298 | 1.0 | 10.0 | 0.00 | 0.00 | 0.00 | 50 | 1004.5 |
| 20260505194004 | 90 | 233 | 5.0 | 8.0 | 0.00 | 0.00 | 0.00 | 48 | 1004.6 |
| 20260505193004 | 90 | 242 | 3.0 | 10.0 | 0.00 | 0.00 | 0.00 | 49 | 1004.6 |
| 20260505192004 | 90 | 124 | 3.0 | 10.0 | 0.00 | 0.00 | 0.00 | 48 | 1004.7 |
| 20260505191004 | 89 | 197 | 1.0 | 10.0 | 0.00 | 0.00 | 0.00 | 52 | 1004.7 |
| 20260505190212 | 89 | 166 | 4.0 | 11.0 | 0.00 | 0.00 | 0.00 | 53 | 1004.7 |
| 20260505185004 | 88 | 250 | 4.0 | 9.0 | 0.00 | 0.00 | 0.00 | 53 | 1004.8 |
| 20260505184212 | 88 | 194 | 3.0 | 10.0 | 0.00 | 0.00 | 0.00 | 55 | 1004.9 |
| 20260505183004 | 87 | 236 | 4.0 | 8.0 | 0.00 | 0.00 | 0.00 | 58 | 1005.1 |
| 20260505182004 | 86 | 252 | 7.0 | 11.0 | 0.00 | 0.00 | 0.00 | 57 | 1005.2 |
| 20260505181004 | 86 | 211 | 3.0 | 9.0 | 0.00 | 0.00 | 0.00 | 59 | 1005.2 |
| 20260505180004 | 85 | 199 | 4.0 | 8.0 | 0.00 | 0.00 | 0.00 | 60 | 1005.3 |
| 20260505175004 | 85 | 232 | 5.0 | 10.0 | 0.00 | 0.00 | 0.00 | 61 | 1005.4 |
| 20260505174211 | 84 | 227 | 5.0 | 11.0 | 0.00 | 0.00 | 0.00 | 63 | 1005.5 |
| 20260505173005 | 84 | 164 | 6.0 | 12.0 | 0.00 | 0.00 | 0.00 | 63 | 1005.6 |
| 20260505172004 | 83 | 237 | 3.0 | 9.0 | 0.00 | 0.00 | 0.00 | 65 | 1005.7 |
| 20260505171004 | 83 | 211 | 5.0 | 9.0 | 0.00 | 0.00 | 0.00 | 64 | 1005.6 |
| 20260505170212 | 83 | 232 | 3.0 | 10.0 | 0.00 | 0.00 | 0.00 | 67 | 1005.6 |
| 20260505165005 | 82 | 184 | 2.0 | 12.0 | 0.00 | 0.00 | 0.00 | 67 | 1005.4 |
| 20260505164005 | 81 | 249 | 4.0 | 11.0 | 0.00 | 0.00 | 0.00 | 68 | 1005.3 |
| 20260505163005 | 80 | 178 | 6.0 | 12.0 | 0.00 | 0.00 | 0.00 | 68 | 1005.3 |
| 20260505162004 | 80 | 200 | 7.0 | 15.0 | 0.00 | 0.00 | 0.00 | 68 | 1005.1 |
| 20260505161004 | 80 | 163 | 6.0 | 13.0 | 0.00 | 0.00 | 0.00 | 69 | 1005.1 |
| 20260505153004 | 79 | 246 | 5.0 | 10.0 | 0.00 | 0.00 | 0.00 | 72 | 1005.3 |
| 20260505152004 | 79 | 186 | 4.0 | 15.0 | 0.00 | 0.00 | 0.00 | 72 | 1005.5 |
| 20260505151211 | 78 | 214 | 6.0 | 12.0 | 0.00 | 0.00 | 0.00 | 74 | 1005.6 |
| 20260505125004 | 70 | 135 | 2.0 | 9.0 | 0.00 | 0.00 | 0.00 | 85 | 1005.1 |
| 20260505124005 | 70 | 173 | 3.0 | 12.0 | 0.00 | 0.00 | 0.00 | 85 | 1005.2 |
| 20260505123004 | 70 | 177 | 4.0 | 9.0 | 0.00 | 0.00 | 0.00 | 85 | 1004.8 |
| 20260505122004 | 70 | 165 | 5.0 | 10.0 | 0.00 | 0.00 | 0.00 | 85 | 1004.6 |
| 20260505121004 | 70 | 215 | 6.0 | 16.0 | 0.00 | 0.00 | 0.00 | 85 | 1004.4 |
| 20260505120005 | 70 | 193 | 4.0 | 12.0 | 0.00 | 0.00 | 0.00 | 85 | 1004.3 |
| 20260505115004 | 70 | 191 | 4.0 | 11.0 | 0.00 | 0.00 | 0.00 | 85 | 1004.2 |
| 20260505114004 | 70 | 203 | 5.0 | 10.0 | 0.00 | 0.00 | 0.00 | 85 | 1004.1 |
| 20260505113005 | 70 | 138 | 5.0 | 12.0 | 0.00 | 0.00 | 0.00 | 85 | 1003.9 |
| 20260505112004 | 70 | 187 | 7.0 | 10.0 | 0.00 | 0.00 | 0.00 | 85 | 1004.1 |
| 20260505111004 | 70 | 184 | 4.0 | 14.0 | 0.00 | 0.00 | 0.00 | 85 | 1004.0 |
| 20260505102004 | 70 | 177 | 4.0 | 10.0 | 0.00 | 0.00 | 0.00 | 84 | 1003.9 |
| 20260505101004 | 70 | 204 | 3.0 | 12.0 | 0.00 | 0.00 | 0.00 | 83 | 1004.0 |
| 20260505100004 | 70 | 173 | 5.0 | 15.0 | 0.00 | 0.00 | 0.00 | 83 | 1004.2 |
| 20260505095005 | 70 | 165 | 5.0 | 11.0 | 0.00 | 0.00 | 0.00 | 83 | 1004.2 |
| 20260505094005 | 70 | 194 | 12.0 | 12.0 | 0.00 | 0.00 | 0.00 | 83 | 1004.2 |
| 20260505093004 | 70 | 158 | 5.0 | 12.0 | 0.00 | 0.00 | 0.00 | 83 | 1004.2 |
| 20260505092004 | 70 | 157 | 6.0 | 14.0 | 0.00 | 0.00 | 0.00 | 83 | 1004.4 |
| 20260505091004 | 70 | 144 | 8.0 | 11.0 | 0.00 | 0.00 | 0.00 | 83 | 1004.4 |
| 20260505090004 | 71 | 117 | 4.0 | 14.0 | 0.00 | 0.00 | 0.00 | 82 | 1004.4 |
| 20260505085004 | 70 | 117 | 3.0 | 11.0 | 0.00 | 0.00 | 0.00 | 82 | 1004.7 |
| 20260505084005 | 71 | 172 | 1.0 | 9.0 | 0.00 | 0.00 | 0.00 | 81 | 1004.8 |
| 20260505083005 | 71 | 182 | 6.0 | 11.0 | 0.00 | 0.00 | 0.00 | 81 | 1004.7 |
| 20260505082005 | 71 | 192 | 5.0 | 11.0 | 0.00 | 0.00 | 0.00 | 80 | 1004.7 |
| 20260505081004 | 71 | 190 | 8.0 | 8.0 | 0.00 | 0.00 | 0.00 | 80 | 1004.6 |
| 20260505080004 | 72 | 167 | 8.0 | 10.0 | 0.00 | 0.00 | 0.00 | 79 | 1004.8 |
| 20260505075004 | 72 | 163 | 4.0 | 8.0 | 0.00 | 0.00 | 0.00 | 78 | 1004.8 |
| 20260505074212 | 72 | 175 | 10.0 | 10.0 | 0.00 | 0.00 | 0.00 | 78 | 1004.9 |
| 20260505073004 | 72 | 155 | 8.0 | 9.0 | 0.00 | 0.00 | 0.00 | 77 | 1005.1 |
| 20260505072004 | 72 | 150 | 5.0 | 9.0 | 0.00 | 0.00 | 0.00 | 76 | 1005.2 |
| 20260505071004 | 73 | 164 | 4.0 | 8.0 | 0.00 | 0.00 | 0.00 | 75 | 1005.3 |
| 20260505070004 | 73 | 153 | 5.0 | 10.0 | 0.00 | 0.00 | 0.00 | 75 | 1005.4 |
| 20260505065004 | 73 | 144 | 4.0 | 9.0 | 0.00 | 0.00 | 0.00 | 74 | 1005.6 |
| 20260505064004 | 73 | 196 | 5.0 | 9.0 | 0.00 | 0.00 | 0.00 | 73 | 1005.6 |
| 20260505063004 | 74 | 153 | 3.0 | 9.0 | 0.00 | 0.00 | 0.00 | 72 | 1005.7 |
| 20260505062004 | 74 | 147 | 3.0 | 10.0 | 0.00 | 0.00 | 0.00 | 72 | 1005.8 |
| 20260505061211 | 75 | 153 | 5.0 | 11.0 | 0.00 | 0.00 | 0.00 | 71 | 1005.7 |
| 20260505060004 | 75 | 162 | 4.0 | 15.0 | 0.00 | 0.00 | 0.00 | 71 | 1005.8 |
| 20260505055004 | 75 | 162 | 6.0 | 17.0 | 0.00 | 0.00 | 0.00 | 71 | 1005.8 |
| 20260505054004 | 74 | 159 | 1.0 | 14.0 | 0.00 | 0.00 | 0.00 | 71 | 1005.8 |
| 20260505053004 | 74 | 160 | 7.0 | 11.0 | 0.00 | 0.00 | 0.00 | 71 | 1005.7 |
| 20260505052004 | 75 | 149 | 3.0 | 14.0 | 0.00 | 0.00 | 0.00 | 71 | 1005.7 |
| 20260505051004 | 75 | 151 | 4.0 | 9.0 | 0.00 | 0.00 | 0.00 | 70 | 1005.9 |
| 20260505041004 | 75 | 138 | 5.0 | 10.0 | 0.00 | 0.00 | 0.00 | 71 | 1006.0 |
| 20260505040005 | 75 | 164 | 6.0 | 12.0 | 0.00 | 0.00 | 0.00 | 71 | 1006.0 |
| 20260505035211 | 75 | 169 | 10.0 | 13.0 | 0.00 | 0.00 | 0.00 | 71 | 1006.0 |
| 20260505034004 | 75 | 106 | 6.0 | 11.0 | 0.00 | 0.00 | 0.00 | 71 | 1006.0 |